createdAt,value
2019-01-31T00:00:04.216Z,101.7
2019-01-31T00:01:03.146Z,101.7
2019-01-31T00:02:02.572Z,103.6
2019-01-31T00:03:03.049Z,102.4
2019-01-31T00:04:03.424Z,102.4
2019-01-31T00:05:02.780Z,102.4
2019-01-31T00:06:03.444Z,102.2
2019-01-31T00:07:02.981Z,101
2019-01-31T00:08:03.225Z,100.1
2019-01-31T00:09:03.762Z,100.8
2019-01-31T00:10:02.964Z,100.3
2019-01-31T00:11:03.021Z,99.8
2019-01-31T00:12:03.129Z,99.1
2019-01-31T00:13:03.682Z,98.4
2019-01-31T00:14:03.537Z,96.3
2019-01-31T00:15:03.646Z,97.3
2019-01-31T00:16:03.703Z,97.3
2019-01-31T00:17:03.691Z,97.3
2019-01-31T00:18:03.629Z,95.4
2019-01-31T00:19:02.487Z,94.5
2019-01-31T00:20:02.961Z,93.5
2019-01-31T00:21:02.960Z,93.1
2019-01-31T00:22:03.262Z,91
2019-01-31T00:23:03.328Z,92.8
2019-01-31T00:24:03.085Z,92.4
2019-01-31T00:25:03.695Z,91.4
2019-01-31T00:26:02.641Z,90.5
2019-01-31T00:27:03.810Z,89.3
2019-01-31T00:28:03.215Z,90.5
2019-01-31T00:29:03.595Z,88.6
2019-01-31T00:30:03.358Z,89.6
2019-01-31T00:31:02.755Z,89.6
2019-01-31T00:32:02.878Z,89.6
2019-01-31T00:33:03.085Z,89.3
2019-01-31T00:34:03.499Z,90.3
2019-01-31T00:35:03.502Z,89.8
2019-01-31T00:36:03.725Z,89.8
2019-01-31T00:37:02.681Z,90.7
2019-01-31T00:38:03.358Z,91.7
2019-01-31T00:39:02.752Z,90.7
2019-01-31T00:40:03.534Z,92.1
2019-01-31T00:41:03.505Z,93.1
2019-01-31T00:42:02.824Z,92.8
2019-01-31T00:43:03.634Z,94
2019-01-31T00:44:03.017Z,95.4
2019-01-31T00:45:03.516Z,94
2019-01-31T00:46:02.731Z,92.8
2019-01-31T00:47:02.868Z,93.1
2019-01-31T00:48:02.862Z,93.3
2019-01-31T00:49:03.682Z,93.5
2019-01-31T00:50:03.785Z,91.7
2019-01-31T00:51:03.996Z,90.5
2019-01-31T00:52:03.448Z,91
2019-01-31T00:53:03.578Z,91.2
2019-01-31T00:54:03.654Z,89.6
2019-01-31T00:55:03.707Z,89.8
2019-01-31T00:56:03.214Z,89.8
2019-01-31T00:57:03.489Z,87.7
2019-01-31T00:58:02.771Z,87.7
2019-01-31T00:59:03.167Z,87.2
2019-01-31T01:00:03.518Z,86.3
2019-01-31T01:01:02.696Z,86.8
2019-01-31T01:02:03.050Z,85.1
2019-01-31T01:03:03.486Z,85.1
2019-01-31T01:04:03.490Z,83.3
2019-01-31T01:05:03.466Z,85.4
2019-01-31T01:06:03.346Z,84.2
2019-01-31T01:07:03.109Z,84
2019-01-31T01:08:02.976Z,82.8
2019-01-31T01:09:08.303Z,82.6
2019-01-31T01:10:03.721Z,83.3
2019-01-31T01:11:03.667Z,81.6
2019-01-31T01:12:04.816Z,84.2
2019-01-31T01:13:02.902Z,84.2
2019-01-31T01:14:03.515Z,84.7
2019-01-31T01:15:03.188Z,84
2019-01-31T01:16:03.383Z,84.9
2019-01-31T01:17:03.026Z,85.8
2019-01-31T01:18:03.661Z,85.8
2019-01-31T01:19:02.618Z,87.5
2019-01-31T01:20:02.866Z,87.7
2019-01-31T01:21:02.762Z,90.3
2019-01-31T01:22:03.122Z,90
2019-01-31T01:23:03.457Z,91.4
2019-01-31T01:24:03.180Z,90.7
2019-01-31T01:25:03.076Z,90.7
2019-01-31T01:26:02.945Z,92.1
2019-01-31T01:27:02.886Z,90.7
2019-01-31T01:28:03.146Z,92.1
2019-01-31T01:29:03.571Z,91.4
2019-01-31T01:30:02.822Z,90.7
2019-01-31T01:31:03.446Z,91.7
2019-01-31T01:32:02.694Z,91
2019-01-31T01:33:03.225Z,89.8
2019-01-31T01:34:03.559Z,90
2019-01-31T01:35:03.415Z,89.3
2019-01-31T01:36:03.018Z,87.5
2019-01-31T01:37:03.392Z,87.9
2019-01-31T01:38:03.364Z,86.3
2019-01-31T01:39:03.340Z,84.2
2019-01-31T01:40:02.959Z,83.5
2019-01-31T01:41:03.093Z,83.3
2019-01-31T01:42:02.937Z,82.3
2019-01-31T01:43:02.978Z,83.5
2019-01-31T01:44:02.771Z,84.2
2019-01-31T01:45:03.377Z,83
2019-01-31T01:46:03.025Z,83.3
2019-01-31T01:47:03.476Z,83
2019-01-31T01:48:03.373Z,82.3
2019-01-31T01:49:03.606Z,83.3
2019-01-31T01:50:03.241Z,82.3
2019-01-31T01:51:03.509Z,83.7
2019-01-31T01:52:03.651Z,84
2019-01-31T01:53:03.207Z,85.4
2019-01-31T01:54:03.387Z,84
2019-01-31T01:55:03.063Z,85.8
2019-01-31T01:56:03.346Z,85.8
2019-01-31T01:57:02.977Z,86.3
2019-01-31T01:58:03.346Z,88.4
2019-01-31T01:59:03.393Z,87
2019-01-31T02:00:03.137Z,90.3
2019-01-31T02:01:03.449Z,87.7
2019-01-31T02:02:03.590Z,87.2
2019-01-31T02:03:03.421Z,88.2
2019-01-31T02:04:03.266Z,86.8
2019-01-31T02:05:03.481Z,88.2
2019-01-31T02:06:03.685Z,87.7
2019-01-31T02:07:02.705Z,88.2
2019-01-31T02:08:03.168Z,88.4
2019-01-31T02:09:02.014Z,89.3
2019-01-31T02:10:03.559Z,89.1
2019-01-31T02:11:03.539Z,88.6
2019-01-31T02:12:03.676Z,88.6
2019-01-31T02:13:03.036Z,89.1
2019-01-31T02:14:03.573Z,90
2019-01-31T02:15:02.755Z,89.8
2019-01-31T02:16:03.110Z,89.6
2019-01-31T02:17:03.528Z,88.4
2019-01-31T02:18:03.481Z,87.9
2019-01-31T02:19:03.486Z,85.8
2019-01-31T02:20:03.580Z,85.4
2019-01-31T02:21:03.033Z,83.5
2019-01-31T02:22:03.178Z,85.6
2019-01-31T02:23:02.742Z,84.7
2019-01-31T02:24:03.506Z,86.3
2019-01-31T02:25:02.897Z,86.1
2019-01-31T02:26:03.547Z,87.5
2019-01-31T02:27:03.188Z,87.5
2019-01-31T02:28:03.565Z,86.5
2019-01-31T02:29:03.191Z,87
2019-01-31T02:30:03.579Z,86.1
2019-01-31T02:31:03.277Z,87
2019-01-31T02:32:03.081Z,85.6
2019-01-31T02:33:03.373Z,86.5
2019-01-31T02:34:03.343Z,86.8
2019-01-31T02:35:02.908Z,86.3
2019-01-31T02:36:05.237Z,87.9
2019-01-31T02:37:03.079Z,89.3
2019-01-31T02:38:03.034Z,89.3
2019-01-31T02:39:03.331Z,89.6
2019-01-31T02:40:03.214Z,89.3
2019-01-31T02:41:03.411Z,89.3
2019-01-31T02:42:03.339Z,89.6
2019-01-31T02:43:03.709Z,89.3
2019-01-31T02:44:02.800Z,91.2
2019-01-31T02:45:03.372Z,90
2019-01-31T02:46:03.415Z,90.5
2019-01-31T02:47:02.749Z,89.8
2019-01-31T02:48:03.446Z,89.3
2019-01-31T02:49:03.733Z,89.1
2019-01-31T02:50:03.437Z,88.9
2019-01-31T02:51:02.608Z,90.3
2019-01-31T02:52:03.406Z,89.3
2019-01-31T02:53:02.918Z,89.8
2019-01-31T02:54:03.749Z,88.4
2019-01-31T02:55:03.024Z,90.5
2019-01-31T02:56:03.090Z,89.6
2019-01-31T02:57:02.982Z,89.8
2019-01-31T02:58:02.848Z,89.1
2019-01-31T02:59:03.276Z,87.9
2019-01-31T03:00:03.677Z,89.8
2019-01-31T03:01:02.690Z,87
2019-01-31T03:02:03.750Z,90.7
2019-01-31T03:03:02.983Z,89.6
2019-01-31T03:04:03.318Z,92.1
2019-01-31T03:05:02.986Z,92.4
2019-01-31T03:06:03.358Z,93.1
2019-01-31T03:07:02.949Z,93.3
2019-01-31T03:08:03.458Z,93.1
2019-01-31T03:09:02.877Z,94.5
2019-01-31T03:10:03.655Z,94
2019-01-31T03:11:02.646Z,94.2
2019-01-31T03:12:03.349Z,94.5
2019-01-31T03:13:02.976Z,93.3
2019-01-31T03:14:10.818Z,93.8
2019-01-31T03:15:02.970Z,92.8
2019-01-31T03:16:03.340Z,94.5
2019-01-31T03:17:03.246Z,93.5
2019-01-31T03:18:03.449Z,94.5
2019-01-31T03:19:03.060Z,96.6
2019-01-31T03:20:03.265Z,96.6
2019-01-31T03:21:02.770Z,95.4
2019-01-31T03:22:03.266Z,97
2019-01-31T03:23:02.922Z,95.2
2019-01-31T03:24:03.396Z,94.7
2019-01-31T03:25:02.847Z,93.8
2019-01-31T03:26:02.893Z,94
2019-01-31T03:27:03.059Z,91.9
2019-01-31T03:28:02.853Z,95.6
2019-01-31T03:29:02.967Z,94.7
2019-01-31T03:30:03.095Z,95.2
2019-01-31T03:31:03.521Z,96.3
2019-01-31T03:32:03.513Z,94
2019-01-31T03:33:02.883Z,97.5
2019-01-31T03:34:02.927Z,96.1
2019-01-31T03:35:02.964Z,96.8
2019-01-31T03:36:02.957Z,96.6
2019-01-31T03:37:02.620Z,97.7
2019-01-31T03:38:03.699Z,97
2019-01-31T03:39:03.443Z,97.3
2019-01-31T03:40:07.672Z,97.3
2019-01-31T03:41:02.791Z,97.3
2019-01-31T03:42:03.526Z,98.9
2019-01-31T03:43:03.370Z,98.2
2019-01-31T03:44:03.576Z,97.3
2019-01-31T03:45:02.923Z,97.5
2019-01-31T03:46:03.571Z,97.7
2019-01-31T03:47:03.363Z,97.7
2019-01-31T03:48:03.150Z,98.9
2019-01-31T03:49:03.410Z,97.5
2019-01-31T03:50:07.276Z,98.7
2019-01-31T03:51:03.506Z,98.2
2019-01-31T03:52:03.501Z,100.3
2019-01-31T03:53:03.619Z,97.7
2019-01-31T03:54:03.731Z,98.4
2019-01-31T03:55:03.174Z,98.7
2019-01-31T03:56:02.667Z,98.9
2019-01-31T03:57:02.860Z,97.5
2019-01-31T03:58:03.177Z,99.4
2019-01-31T03:59:03.375Z,98.2
2019-01-31T04:00:02.818Z,98.7
2019-01-31T04:01:02.913Z,98
2019-01-31T04:02:02.932Z,98.4
2019-01-31T04:03:03.206Z,98.4
2019-01-31T04:04:03.645Z,95.9
2019-01-31T04:05:03.676Z,98
2019-01-31T04:06:03.428Z,96.3
2019-01-31T04:07:02.804Z,96.3
2019-01-31T04:08:03.108Z,96.6
2019-01-31T04:09:03.816Z,96.3
2019-01-31T04:10:03.817Z,96.6
2019-01-31T04:11:03.755Z,97.5
2019-01-31T04:12:03.215Z,97
2019-01-31T04:13:03.546Z,98.2
2019-01-31T04:14:03.331Z,98
2019-01-31T04:15:02.929Z,98.7
2019-01-31T04:16:02.907Z,99.6
2019-01-31T04:17:03.452Z,98
2019-01-31T04:18:03.019Z,100.5
2019-01-31T04:19:03.490Z,99.8
2019-01-31T04:20:02.728Z,100.8
2019-01-31T04:21:02.933Z,97.5
2019-01-31T04:22:03.609Z,99.6
2019-01-31T04:23:03.443Z,98.9
2019-01-31T04:24:03.760Z,99.6
2019-01-31T04:25:03.292Z,100.5
2019-01-31T04:26:03.114Z,101.2
2019-01-31T04:27:03.072Z,100.8
2019-01-31T04:28:03.509Z,101.7
2019-01-31T04:29:02.877Z,100.8
2019-01-31T04:30:03.321Z,99.8
2019-01-31T04:31:03.300Z,100.8
2019-01-31T04:32:02.995Z,100.8
2019-01-31T04:33:02.587Z,99.4
2019-01-31T04:34:03.787Z,100.1
2019-01-31T04:35:03.733Z,99.4
2019-01-31T04:36:03.247Z,99.1
2019-01-31T04:37:02.986Z,100.5
2019-01-31T04:38:02.995Z,99.6
2019-01-31T04:39:03.491Z,99.6
2019-01-31T04:40:03.720Z,98.7
2019-01-31T04:41:03.548Z,98.4
2019-01-31T04:42:03.085Z,98.4
2019-01-31T04:43:03.402Z,98
2019-01-31T04:44:03.202Z,98
2019-01-31T04:45:02.951Z,97.3
2019-01-31T04:46:02.442Z,99.4
2019-01-31T04:47:03.700Z,98.9
2019-01-31T04:48:03.276Z,99.4
2019-01-31T04:49:03.710Z,98.2
2019-01-31T04:50:03.768Z,98.9
2019-01-31T04:51:02.843Z,97.7
2019-01-31T04:52:03.333Z,98.7
2019-01-31T04:53:03.528Z,95.9
2019-01-31T04:54:03.655Z,96.1
2019-01-31T04:55:02.944Z,96.3
2019-01-31T04:56:03.436Z,96.8
2019-01-31T04:57:03.321Z,94.9
2019-01-31T04:58:03.261Z,97
2019-01-31T04:59:03.429Z,96.1
2019-01-31T05:00:02.805Z,95.4
2019-01-31T05:01:03.127Z,96.1
2019-01-31T05:02:02.988Z,94.7
2019-01-31T05:03:03.387Z,95.2
2019-01-31T05:04:02.636Z,93.3
2019-01-31T05:05:03.234Z,94.2
2019-01-31T05:06:03.554Z,91
2019-01-31T05:07:03.080Z,91.4
2019-01-31T05:08:02.858Z,90.7
2019-01-31T05:09:03.106Z,91
2019-01-31T05:10:03.329Z,89.1
2019-01-31T05:11:03.733Z,90.7
2019-01-31T05:12:03.644Z,88.4
2019-01-31T05:13:03.296Z,89.1
2019-01-31T05:14:03.287Z,87.5
2019-01-31T05:15:03.594Z,89.3
2019-01-31T05:16:04.435Z,88.2
2019-01-31T05:17:02.904Z,90
2019-01-31T05:18:03.234Z,88.4
2019-01-31T05:19:03.519Z,88.2
2019-01-31T05:20:03.046Z,89.1
2019-01-31T05:21:03.532Z,87.2
2019-01-31T05:22:03.429Z,87.2
2019-01-31T05:23:03.215Z,90.5
2019-01-31T05:24:03.181Z,87.5
2019-01-31T05:25:03.390Z,90.3
2019-01-31T05:26:03.444Z,87.7
2019-01-31T05:27:04.668Z,89.6
2019-01-31T05:28:02.999Z,90.3
2019-01-31T05:29:03.447Z,89.3
2019-01-31T05:30:03.860Z,88.9
2019-01-31T05:31:02.890Z,89.8
2019-01-31T05:32:03.077Z,90.3
2019-01-31T05:33:03.625Z,88.4
2019-01-31T05:34:03.671Z,89.1
2019-01-31T05:35:03.575Z,87.7
2019-01-31T05:36:03.093Z,90
2019-01-31T05:37:03.696Z,89.1
2019-01-31T05:38:03.287Z,89.1
2019-01-31T05:39:03.454Z,89.1
2019-01-31T05:40:02.835Z,89.1
2019-01-31T05:41:03.579Z,89.8
2019-01-31T05:42:03.860Z,87.9
2019-01-31T05:43:03.636Z,90.3
2019-01-31T05:44:02.817Z,87.9
2019-01-31T05:45:03.383Z,89.1
2019-01-31T05:46:03.652Z,89.1
2019-01-31T05:47:02.783Z,88.4
2019-01-31T05:48:03.499Z,88.6
2019-01-31T05:49:03.300Z,87.5
2019-01-31T05:50:03.390Z,88.2
2019-01-31T05:51:03.711Z,88.2
2019-01-31T05:52:03.823Z,87.9
2019-01-31T05:53:03.531Z,88.6
2019-01-31T05:54:03.166Z,89.8
2019-01-31T05:55:03.658Z,88.6
2019-01-31T05:56:02.860Z,89.8
2019-01-31T05:57:02.952Z,88.6
2019-01-31T05:58:02.836Z,90
2019-01-31T05:59:05.991Z,90.3
2019-01-31T06:00:03.741Z,90.7
2019-01-31T06:01:02.990Z,90.7
2019-01-31T06:02:03.339Z,90.3
2019-01-31T06:03:02.874Z,92.1
2019-01-31T06:04:03.210Z,91.4
2019-01-31T06:05:03.086Z,93.5
2019-01-31T06:06:03.341Z,92.4
2019-01-31T06:07:11.633Z,94.7
2019-01-31T06:08:03.302Z,94
2019-01-31T06:09:02.863Z,94
2019-01-31T06:10:03.196Z,92.8
2019-01-31T06:11:08.199Z,94.2
2019-01-31T06:12:03.425Z,94
2019-01-31T06:13:03.188Z,95.2
2019-01-31T06:14:03.492Z,95.6
2019-01-31T06:15:03.864Z,95.6
2019-01-31T06:16:03.367Z,94
2019-01-31T06:17:03.253Z,95.6
2019-01-31T06:18:03.093Z,92.4
2019-01-31T06:19:03.648Z,92.8
2019-01-31T06:20:02.749Z,94.2
2019-01-31T06:21:02.949Z,92.8
2019-01-31T06:22:02.666Z,92.4
2019-01-31T06:23:03.232Z,93.5
2019-01-31T06:24:02.548Z,92.8
2019-01-31T06:25:02.751Z,94
2019-01-31T06:26:03.243Z,93.1
2019-01-31T06:27:03.106Z,92.4
2019-01-31T06:28:03.683Z,94.7
2019-01-31T06:29:03.365Z,91.9
2019-01-31T06:30:03.099Z,93.8
2019-01-31T06:31:03.220Z,94.5
2019-01-31T06:32:02.727Z,94.5
2019-01-31T06:33:02.813Z,94.7
2019-01-31T06:34:03.389Z,94.5
2019-01-31T06:35:03.139Z,93.5
2019-01-31T06:36:03.847Z,94.2
2019-01-31T06:37:02.902Z,94
2019-01-31T06:38:02.905Z,93.5
2019-01-31T06:39:03.565Z,94.2
2019-01-31T06:40:03.388Z,94
2019-01-31T06:41:03.883Z,93.8
2019-01-31T06:42:03.148Z,92.6
2019-01-31T06:43:02.885Z,94
2019-01-31T06:44:03.286Z,91
2019-01-31T06:45:03.329Z,92.1
2019-01-31T06:46:03.207Z,92.6
2019-01-31T06:47:02.813Z,91.9
2019-01-31T06:48:05.390Z,91.9
2019-01-31T06:49:03.425Z,94
2019-01-31T06:50:03.851Z,91.7
2019-01-31T06:51:02.835Z,93.1
2019-01-31T06:52:03.298Z,92.6
2019-01-31T06:53:03.519Z,93.1
2019-01-31T06:54:03.498Z,94
2019-01-31T06:55:03.009Z,92.4
2019-01-31T06:56:03.241Z,94
2019-01-31T06:57:03.587Z,92.4
2019-01-31T06:58:03.550Z,94
2019-01-31T06:59:02.893Z,92.8
2019-01-31T07:00:02.901Z,93.5
2019-01-31T07:01:03.529Z,92.6
2019-01-31T07:02:02.759Z,93.8
2019-01-31T07:03:03.604Z,92.8
2019-01-31T07:04:02.836Z,93.5
2019-01-31T07:05:03.492Z,94.5
2019-01-31T07:06:03.709Z,92.4
2019-01-31T07:07:02.617Z,95.2
2019-01-31T07:08:05.058Z,95.9
2019-01-31T07:09:03.218Z,93.8
2019-01-31T07:10:03.702Z,95.2
2019-01-31T07:11:03.672Z,94.5
2019-01-31T07:12:02.845Z,96.1
2019-01-31T07:13:02.727Z,95.2
2019-01-31T07:14:03.775Z,95.4
2019-01-31T07:15:03.750Z,95.4
2019-01-31T07:16:02.889Z,94
2019-01-31T07:17:02.923Z,96.3
2019-01-31T07:18:03.438Z,93.5
2019-01-31T07:19:02.930Z,96.8
2019-01-31T07:20:03.477Z,96.1
2019-01-31T07:21:02.834Z,96.1
2019-01-31T07:22:03.031Z,94.7
2019-01-31T07:23:02.782Z,95.6
2019-01-31T07:24:02.879Z,95.6
2019-01-31T07:25:03.053Z,95.6
2019-01-31T07:26:03.528Z,95.2
2019-01-31T07:27:03.215Z,94.5
2019-01-31T07:28:03.521Z,95.9
2019-01-31T07:29:02.894Z,93.1
2019-01-31T07:30:03.225Z,94.2
2019-01-31T07:31:03.373Z,94
2019-01-31T07:32:03.863Z,94
2019-01-31T07:33:03.273Z,93.8
2019-01-31T07:34:03.520Z,94
2019-01-31T07:35:02.829Z,94.5
2019-01-31T07:36:03.424Z,94.2
2019-01-31T07:37:03.429Z,95.4
2019-01-31T07:38:03.366Z,94.2
2019-01-31T07:39:02.936Z,96.1
2019-01-31T07:40:03.292Z,96.3
2019-01-31T07:41:02.817Z,98.7
2019-01-31T07:42:03.806Z,98.2
2019-01-31T07:43:03.708Z,98
2019-01-31T07:44:03.573Z,97.3
2019-01-31T07:45:03.026Z,98.2
2019-01-31T07:46:03.301Z,97.3
2019-01-31T07:47:03.486Z,97.3
2019-01-31T07:48:03.126Z,96.8
2019-01-31T07:49:02.980Z,98.4
2019-01-31T07:50:03.776Z,98.2
2019-01-31T07:51:02.744Z,96.8
2019-01-31T07:52:02.978Z,97.5
2019-01-31T07:53:03.010Z,98.4
2019-01-31T07:54:03.783Z,95.4
2019-01-31T07:55:03.187Z,96.3
2019-01-31T07:56:03.650Z,97
2019-01-31T07:57:03.548Z,94.9
2019-01-31T07:58:03.065Z,96.1
2019-01-31T07:59:02.858Z,95.6
2019-01-31T08:00:03.879Z,95.6
2019-01-31T08:01:02.356Z,95.6
2019-01-31T08:02:02.727Z,95.4
2019-01-31T08:03:03.378Z,95.2
2019-01-31T08:04:03.606Z,94.7
2019-01-31T08:05:03.329Z,95.2
2019-01-31T08:06:02.951Z,92.6
2019-01-31T08:07:03.359Z,94.2
2019-01-31T08:08:03.616Z,94.7
2019-01-31T08:09:03.033Z,93.1
2019-01-31T08:10:02.896Z,92.6
2019-01-31T08:11:03.278Z,93.5
2019-01-31T08:12:03.796Z,93.5
2019-01-31T08:13:03.430Z,94
2019-01-31T08:14:03.187Z,93.5
2019-01-31T08:15:03.929Z,94.9
2019-01-31T08:16:03.392Z,94.7
2019-01-31T08:17:03.357Z,96.8
2019-01-31T08:18:03.137Z,97.7
2019-01-31T08:19:03.055Z,98.2
2019-01-31T08:20:03.724Z,98.4
2019-01-31T08:21:03.710Z,98.4
2019-01-31T08:22:03.663Z,98.2
2019-01-31T08:23:03.578Z,99.4
2019-01-31T08:24:03.905Z,96.8
2019-01-31T08:25:03.450Z,99.1
2019-01-31T08:26:03.504Z,99.6
2019-01-31T08:27:02.813Z,100.5
2019-01-31T08:28:02.663Z,100.3
2019-01-31T08:29:02.970Z,100.8
2019-01-31T08:30:03.562Z,98.9
2019-01-31T08:31:03.652Z,100.1
2019-01-31T08:32:03.273Z,98.9
2019-01-31T08:33:03.269Z,100.8
2019-01-31T08:34:03.222Z,99.6
2019-01-31T08:35:03.413Z,99.8
2019-01-31T08:36:03.354Z,99.1
2019-01-31T08:37:02.583Z,98.7
2019-01-31T08:38:03.611Z,98
2019-01-31T08:39:03.358Z,97.3
2019-01-31T08:40:03.342Z,99.6
2019-01-31T08:41:03.112Z,98.2
2019-01-31T08:42:04.233Z,99.1
2019-01-31T08:43:03.195Z,98.7
2019-01-31T08:44:03.258Z,100.3
2019-01-31T08:45:03.388Z,100.5
2019-01-31T08:46:02.914Z,100.8
2019-01-31T08:47:02.913Z,99.8
2019-01-31T08:48:02.844Z,99.6
2019-01-31T08:49:03.147Z,99.1
2019-01-31T08:50:03.288Z,99.4
2019-01-31T08:51:03.370Z,99.4
2019-01-31T08:52:03.497Z,100.8
2019-01-31T08:53:03.246Z,99.8
2019-01-31T08:54:03.276Z,100.3
2019-01-31T08:55:02.794Z,101
2019-01-31T08:56:03.600Z,103.6
2019-01-31T08:57:02.892Z,102.2
2019-01-31T08:58:03.012Z,103.3
2019-01-31T08:59:03.306Z,101.5
2019-01-31T09:00:03.466Z,101.2
2019-01-31T09:01:03.720Z,102.6
2019-01-31T09:02:02.832Z,101.7
2019-01-31T09:03:03.245Z,103.1
2019-01-31T09:04:03.542Z,103.6
2019-01-31T09:05:03.602Z,103.1
2019-01-31T09:06:02.979Z,102.9
2019-01-31T09:07:02.835Z,105.2
2019-01-31T09:08:03.642Z,102.9
2019-01-31T09:09:02.845Z,104
2019-01-31T09:10:03.291Z,102.9
2019-01-31T09:11:02.817Z,103.8
2019-01-31T09:12:03.007Z,102.4
2019-01-31T09:13:03.127Z,105
2019-01-31T09:14:03.458Z,101.9
2019-01-31T09:15:02.982Z,102.6
2019-01-31T09:16:03.497Z,100.3
2019-01-31T09:17:03.191Z,99.6
2019-01-31T09:18:03.345Z,99.8
2019-01-31T09:19:04.362Z,98.4
2019-01-31T09:20:03.596Z,98.2
2019-01-31T09:21:03.762Z,97.5
2019-01-31T09:22:03.319Z,97
2019-01-31T09:23:03.043Z,97.3
2019-01-31T09:24:03.594Z,96.1
2019-01-31T09:25:03.440Z,98
2019-01-31T09:26:02.948Z,96.1
2019-01-31T09:27:02.984Z,96.1
2019-01-31T09:28:03.142Z,94.5
2019-01-31T09:29:03.306Z,96.6
2019-01-31T09:30:02.739Z,94.2
2019-01-31T09:31:03.706Z,96.8
2019-01-31T09:32:03.691Z,96.3
2019-01-31T09:33:03.231Z,98.7
2019-01-31T09:34:03.205Z,96.3
2019-01-31T09:35:05.495Z,98
2019-01-31T09:36:02.871Z,98.2
2019-01-31T09:37:03.296Z,99.1
2019-01-31T09:38:03.667Z,98.9
2019-01-31T09:39:03.441Z,99.4
2019-01-31T09:40:03.280Z,99.1
2019-01-31T09:41:03.272Z,96.1
2019-01-31T09:42:03.434Z,95.9
2019-01-31T09:43:03.718Z,95.4
2019-01-31T09:44:03.515Z,94.7
2019-01-31T09:45:05.143Z,94.7
2019-01-31T09:46:02.948Z,94.2
2019-01-31T09:47:03.881Z,93.5
2019-01-31T09:48:03.809Z,94.5
2019-01-31T09:49:02.992Z,93.5
2019-01-31T09:50:03.604Z,92.1
2019-01-31T09:51:03.599Z,92.4
2019-01-31T09:52:03.551Z,93.3
2019-01-31T09:53:03.852Z,93.5
2019-01-31T09:54:02.773Z,91.2
2019-01-31T09:55:03.120Z,92.6
2019-01-31T09:56:02.772Z,93.1
2019-01-31T09:57:02.849Z,92.1
2019-01-31T09:58:03.080Z,94.2
2019-01-31T09:59:02.564Z,92.6
2019-01-31T10:00:03.093Z,94
2019-01-31T10:01:02.717Z,94.2
2019-01-31T10:02:03.041Z,92.1
2019-01-31T10:03:03.143Z,94.2
2019-01-31T10:04:03.118Z,93.3
2019-01-31T10:05:03.597Z,93.8
2019-01-31T10:06:02.839Z,92.8
2019-01-31T10:07:03.394Z,94
2019-01-31T10:08:03.682Z,92.1
2019-01-31T10:09:03.926Z,93.1
2019-01-31T10:10:03.616Z,93.8
2019-01-31T10:11:02.770Z,92.8
2019-01-31T10:12:03.554Z,93.5
2019-01-31T10:13:03.052Z,94
2019-01-31T10:14:03.779Z,92.8
2019-01-31T10:15:03.656Z,94
2019-01-31T10:16:03.240Z,94.2
2019-01-31T10:17:03.812Z,93.3
2019-01-31T10:18:03.125Z,94
2019-01-31T10:19:03.502Z,93.1
2019-01-31T10:20:03.203Z,93.5
2019-01-31T10:21:03.565Z,92.8
2019-01-31T10:22:03.090Z,92.4
2019-01-31T10:23:03.173Z,95.2
2019-01-31T10:24:03.385Z,93.5
2019-01-31T10:25:03.963Z,95.4
2019-01-31T10:26:03.075Z,94.9
2019-01-31T10:27:03.122Z,94.9
2019-01-31T10:28:03.020Z,95.4
2019-01-31T10:29:03.117Z,96.1
2019-01-31T10:30:03.718Z,95.2
2019-01-31T10:31:03.643Z,94.7
2019-01-31T10:32:03.098Z,94
2019-01-31T10:33:02.978Z,93.3
2019-01-31T10:34:03.326Z,91.9
2019-01-31T10:35:03.832Z,92.1
2019-01-31T10:36:06.013Z,91.9
2019-01-31T10:37:03.302Z,92.1
2019-01-31T10:38:03.587Z,90.7
2019-01-31T10:39:03.784Z,91.7
2019-01-31T10:40:03.802Z,91.7
2019-01-31T10:41:03.431Z,92.6
2019-01-31T10:42:03.582Z,93.8
2019-01-31T10:43:03.735Z,94.7
2019-01-31T10:44:02.896Z,94.5
2019-01-31T10:45:03.055Z,94.7
2019-01-31T10:46:03.610Z,95.4
2019-01-31T10:47:03.213Z,95.2
2019-01-31T10:48:03.328Z,94.7
2019-01-31T10:49:03.566Z,95.6
2019-01-31T10:50:03.669Z,93.8
2019-01-31T10:51:03.784Z,93.5
2019-01-31T10:52:03.113Z,94.2
2019-01-31T10:53:02.771Z,95.6
2019-01-31T10:54:03.413Z,93.3
2019-01-31T10:55:02.924Z,94.9
2019-01-31T10:56:03.557Z,92.6
2019-01-31T10:57:03.418Z,92.4
2019-01-31T10:58:03.175Z,91
2019-01-31T10:59:03.039Z,91
2019-01-31T11:00:02.936Z,91.7
2019-01-31T11:01:03.171Z,92.4
2019-01-31T11:02:03.809Z,92.1
2019-01-31T11:03:02.631Z,92.4
2019-01-31T11:04:02.441Z,93.3
2019-01-31T11:05:03.945Z,92.4
2019-01-31T11:06:03.374Z,92.8
2019-01-31T11:07:03.720Z,92.4
2019-01-31T11:08:02.511Z,91.9
2019-01-31T11:09:03.408Z,91.9
2019-01-31T11:10:03.214Z,92.6
2019-01-31T11:11:03.102Z,91.7
2019-01-31T11:12:03.444Z,91.9
2019-01-31T11:13:03.394Z,92.6
2019-01-31T11:14:03.233Z,91.9
2019-01-31T11:15:03.202Z,91.7
2019-01-31T11:16:03.525Z,92.1
2019-01-31T11:17:03.490Z,90
2019-01-31T11:18:02.383Z,91.2
2019-01-31T11:19:12.898Z,92.1
2019-01-31T11:20:03.607Z,93.3
2019-01-31T11:21:03.450Z,91.9
2019-01-31T11:22:02.871Z,93.5
2019-01-31T11:23:03.456Z,92.8
2019-01-31T11:24:02.842Z,92.4
2019-01-31T11:25:03.079Z,92.6
2019-01-31T11:26:03.386Z,92.1
2019-01-31T11:27:03.335Z,93.3
2019-01-31T11:28:03.777Z,92.6
2019-01-31T11:29:03.034Z,93.3
2019-01-31T11:30:03.225Z,92.6
2019-01-31T11:31:03.535Z,91.7
2019-01-31T11:32:03.111Z,91.7
2019-01-31T11:33:03.743Z,91.4
2019-01-31T11:34:03.119Z,92.8
2019-01-31T11:35:03.005Z,92.1
2019-01-31T11:36:03.570Z,92.4
2019-01-31T11:37:03.072Z,93.3
2019-01-31T11:38:03.071Z,92.4
2019-01-31T11:39:03.310Z,93.3
2019-01-31T11:40:03.100Z,93.3
2019-01-31T11:41:03.427Z,93.5
2019-01-31T11:42:03.397Z,91.7
2019-01-31T11:43:12.207Z,94
2019-01-31T11:44:02.830Z,94.5
2019-01-31T11:45:02.847Z,94
2019-01-31T11:46:02.791Z,94.9
2019-01-31T11:47:49.645Z,94.9
2019-01-31T11:48:03.435Z,94.9
2019-01-31T11:49:03.473Z,94.5
2019-01-31T11:50:02.992Z,97
2019-01-31T11:51:03.287Z,98.7
2019-01-31T11:52:03.296Z,96.1
2019-01-31T11:53:02.816Z,97.3
2019-01-31T11:54:03.637Z,98.7
2019-01-31T11:55:03.197Z,97.3
2019-01-31T11:56:02.981Z,97.3
2019-01-31T11:57:05.949Z,100.1
2019-01-31T11:58:03.533Z,98.7
2019-01-31T11:59:03.520Z,99.1
2019-01-31T12:00:03.781Z,98.9
2019-01-31T12:01:04.162Z,99.6
2019-01-31T12:02:03.080Z,98.2
2019-01-31T12:03:03.427Z,98.7
2019-01-31T12:04:02.921Z,99.1
2019-01-31T12:05:02.973Z,99.8
2019-01-31T12:06:02.720Z,98.9
2019-01-31T12:07:02.916Z,99.8
2019-01-31T12:08:03.294Z,99.1
2019-01-31T12:09:02.916Z,99.4
2019-01-31T12:10:03.131Z,100.5
2019-01-31T12:11:02.845Z,100.1
2019-01-31T12:12:02.994Z,99.8
2019-01-31T12:13:02.876Z,99.8
2019-01-31T12:14:03.343Z,99.1
2019-01-31T12:15:03.626Z,98.7
2019-01-31T12:16:03.219Z,98.2
2019-01-31T12:17:03.503Z,97
2019-01-31T12:18:03.155Z,96.8
2019-01-31T12:19:03.729Z,97.3
2019-01-31T12:20:03.012Z,97.3
2019-01-31T12:21:03.605Z,95.4
2019-01-31T12:22:03.281Z,95.9
2019-01-31T12:23:03.480Z,95.4
2019-01-31T12:24:02.291Z,95.2
2019-01-31T12:25:03.657Z,94
2019-01-31T12:26:03.246Z,95.4
2019-01-31T12:27:02.869Z,94
2019-01-31T12:28:02.865Z,95.9
2019-01-31T12:29:03.356Z,95.6
2019-01-31T12:30:03.743Z,96.8
2019-01-31T12:31:02.929Z,97.3
2019-01-31T12:32:02.990Z,97.3
2019-01-31T12:33:03.657Z,97.5
2019-01-31T12:34:03.019Z,98.4
2019-01-31T12:35:03.230Z,97.3
2019-01-31T12:36:02.960Z,97
2019-01-31T12:37:03.140Z,97.3
2019-01-31T12:38:02.909Z,96.3
2019-01-31T12:39:03.830Z,96.1
2019-01-31T12:40:03.692Z,97
2019-01-31T12:41:03.451Z,95.2
2019-01-31T12:42:03.714Z,94.7
2019-01-31T12:43:02.988Z,94.5
2019-01-31T12:44:03.485Z,94.5
2019-01-31T12:45:03.534Z,94.2
2019-01-31T12:46:02.945Z,94.5
2019-01-31T12:47:02.709Z,93.1
2019-01-31T12:48:02.093Z,93.1
2019-01-31T12:49:02.834Z,92.4
2019-01-31T12:50:03.529Z,92.4
2019-01-31T12:51:03.062Z,92.6
2019-01-31T12:52:04.571Z,91
2019-01-31T12:53:03.390Z,89.3
2019-01-31T12:54:03.260Z,89.1
2019-01-31T12:55:03.533Z,88.4
2019-01-31T12:56:03.573Z,87.2
2019-01-31T12:57:02.879Z,89.1
2019-01-31T12:58:03.521Z,87.7
2019-01-31T12:59:03.232Z,88.2
2019-01-31T13:00:03.507Z,89.8
2019-01-31T13:01:03.717Z,89.3
2019-01-31T13:02:02.790Z,88.4
2019-01-31T13:03:03.536Z,86.8
2019-01-31T13:04:03.072Z,86.1
2019-01-31T13:05:02.925Z,88.6
2019-01-31T13:06:03.212Z,86.3
2019-01-31T13:07:03.426Z,88.2
2019-01-31T13:08:03.359Z,87.7
2019-01-31T13:09:03.232Z,87.5
2019-01-31T13:10:03.429Z,88.6
2019-01-31T13:11:03.617Z,89.1
2019-01-31T13:12:02.281Z,88.6
2019-01-31T13:13:02.934Z,89.6
2019-01-31T13:14:03.045Z,90.5
2019-01-31T13:15:03.577Z,91.2
2019-01-31T13:16:03.469Z,91.9
2019-01-31T13:17:02.993Z,91.9
2019-01-31T13:18:03.064Z,94.2
2019-01-31T13:19:03.579Z,95.2
2019-01-31T13:20:03.024Z,94.9
2019-01-31T13:21:03.670Z,95.2
2019-01-31T13:22:03.186Z,95.4